sensor_id;sensor_type;location;lat;lon;timestamp;P1;durP1;ratioP1;P2;durP2;ratioP2
62435;SDS011;48480;50.252;18.848;2024-03-23T00:52:07;28.90;;;17.70;;
62435;SDS011;48480;50.252;18.848;2024-03-23T00:54:51;32.10;;;18.60;;
62435;SDS011;48480;50.252;18.848;2024-03-23T00:57:35;26.30;;;18.00;;
62435;SDS011;48480;50.252;18.848;2024-03-23T01:00:19;27.30;;;17.80;;
62435;SDS011;48480;50.252;18.848;2024-03-23T01:03:04;26.00;;;16.80;;
62435;SDS011;48480;50.252;18.848;2024-03-23T01:05:48;27.00;;;17.60;;
62435;SDS011;48480;50.252;18.848;2024-03-23T01:08:36;26.30;;;17.50;;
62435;SDS011;48480;50.252;18.848;2024-03-23T01:11:20;28.70;;;18.90;;
62435;SDS011;48480;50.252;18.848;2024-03-23T01:14:04;30.60;;;18.80;;
62435;SDS011;48480;50.252;18.848;2024-03-23T01:16:49;28.70;;;18.20;;
62435;SDS011;48480;50.252;18.848;2024-03-23T01:19:34;34.00;;;20.30;;
62435;SDS011;48480;50.252;18.848;2024-03-23T01:22:18;41.80;;;24.70;;
62435;SDS011;48480;50.252;18.848;2024-03-23T01:25:02;43.50;;;26.20;;
62435;SDS011;48480;50.252;18.848;2024-03-23T01:27:47;38.20;;;22.10;;
62435;SDS011;48480;50.252;18.848;2024-03-23T01:30:31;38.90;;;22.90;;
62435;SDS011;48480;50.252;18.848;2024-03-23T01:33:15;39.20;;;22.70;;
62435;SDS011;48480;50.252;18.848;2024-03-23T01:35:59;40.10;;;24.30;;
62435;SDS011;48480;50.252;18.848;2024-03-23T01:38:43;40.10;;;24.00;;
62435;SDS011;48480;50.252;18.848;2024-03-23T01:41:28;35.10;;;24.20;;
62435;SDS011;48480;50.252;18.848;2024-03-23T01:44:12;38.10;;;24.40;;
62435;SDS011;48480;50.252;18.848;2024-03-23T01:46:56;39.40;;;23.10;;
62435;SDS011;48480;50.252;18.848;2024-03-23T01:49:40;40.20;;;24.70;;
62435;SDS011;48480;50.252;18.848;2024-03-23T01:52:24;42.00;;;24.40;;
62435;SDS011;48480;50.252;18.848;2024-03-23T01:55:11;39.60;;;24.90;;
62435;SDS011;48480;50.252;18.848;2024-03-23T01:57:59;39.50;;;24.20;;
62435;SDS011;48480;50.252;18.848;2024-03-23T02:00:43;38.70;;;23.00;;
62435;SDS011;48480;50.252;18.848;2024-03-23T02:03:27;44.80;;;25.00;;
62435;SDS011;48480;50.252;18.848;2024-03-23T02:06:12;39.30;;;23.10;;
62435;SDS011;48480;50.252;18.848;2024-03-23T02:08:56;36.70;;;22.60;;
62435;SDS011;48480;50.252;18.848;2024-03-23T02:11:41;34.20;;;21.10;;
62435;SDS011;48480;50.252;18.848;2024-03-23T02:14:25;31.20;;;19.70;;
62435;SDS011;48480;50.252;18.848;2024-03-23T02:17:09;34.70;;;21.90;;
62435;SDS011;48480;50.252;18.848;2024-03-23T02:19:54;36.30;;;21.80;;
62435;SDS011;48480;50.252;18.848;2024-03-23T02:22:39;36.30;;;22.00;;
62435;SDS011;48480;50.252;18.848;2024-03-23T02:25:23;36.30;;;22.80;;
62435;SDS011;48480;50.252;18.848;2024-03-23T02:28:07;36.90;;;22.90;;
62435;SDS011;48480;50.252;18.848;2024-03-23T02:30:52;39.00;;;24.20;;
62435;SDS011;48480;50.252;18.848;2024-03-23T02:33:36;36.10;;;22.30;;
62435;SDS011;48480;50.252;18.848;2024-03-23T02:36:22;39.80;;;23.70;;
62435;SDS011;48480;50.252;18.848;2024-03-23T02:39:06;41.40;;;24.50;;
62435;SDS011;48480;50.252;18.848;2024-03-23T02:41:50;39.90;;;24.50;;
62435;SDS011;48480;50.252;18.848;2024-03-23T02:44:34;37.80;;;22.40;;
62435;SDS011;48480;50.252;18.848;2024-03-23T02:47:18;35.90;;;21.90;;
62435;SDS011;48480;50.252;18.848;2024-03-23T02:50:03;37.30;;;20.80;;
62435;SDS011;48480;50.252;18.848;2024-03-23T02:52:48;33.90;;;21.80;;
62435;SDS011;48480;50.252;18.848;2024-03-23T02:55:32;30.10;;;19.80;;
62435;SDS011;48480;50.252;18.848;2024-03-23T02:58:16;31.60;;;20.50;;
62435;SDS011;48480;50.252;18.848;2024-03-23T03:01:00;31.70;;;22.70;;
62435;SDS011;48480;50.252;18.848;2024-03-23T03:03:44;33.10;;;20.80;;
62435;SDS011;48480;50.252;18.848;2024-03-23T03:06:29;30.00;;;20.80;;
62435;SDS011;48480;50.252;18.848;2024-03-23T03:09:14;35.80;;;23.00;;
62435;SDS011;48480;50.252;18.848;2024-03-23T03:11:59;34.00;;;21.60;;
62435;SDS011;48480;50.252;18.848;2024-03-23T03:14:43;28.20;;;18.80;;
62435;SDS011;48480;50.252;18.848;2024-03-23T03:17:28;33.00;;;21.20;;
62435;SDS011;48480;50.252;18.848;2024-03-23T03:20:12;32.30;;;19.50;;
62435;SDS011;48480;50.252;18.848;2024-03-23T03:22:57;27.20;;;17.80;;
62435;SDS011;48480;50.252;18.848;2024-03-23T03:25:41;28.20;;;19.40;;
62435;SDS011;48480;50.252;18.848;2024-03-23T03:28:25;35.50;;;20.40;;
62435;SDS011;48480;50.252;18.848;2024-03-23T03:31:10;34.10;;;22.60;;
62435;SDS011;48480;50.252;18.848;2024-03-23T03:33:54;35.60;;;21.40;;
62435;SDS011;48480;50.252;18.848;2024-03-23T03:36:37;34.80;;;21.20;;
62435;SDS011;48480;50.252;18.848;2024-03-23T03:39:22;32.00;;;20.60;;
62435;SDS011;48480;50.252;18.848;2024-03-23T03:42:07;35.50;;;21.80;;
62435;SDS011;48480;50.252;18.848;2024-03-23T03:44:54;31.80;;;20.60;;
62435;SDS011;48480;50.252;18.848;2024-03-23T03:47:45;32.30;;;19.30;;
62435;SDS011;48480;50.252;18.848;2024-03-23T03:50:29;31.40;;;19.10;;
62435;SDS011;48480;50.252;18.848;2024-03-23T03:53:14;28.50;;;18.00;;
62435;SDS011;48480;50.252;18.848;2024-03-23T03:56:01;31.70;;;18.80;;
62435;SDS011;48480;50.252;18.848;2024-03-23T03:58:46;30.40;;;20.00;;
62435;SDS011;48480;50.252;18.848;2024-03-23T04:01:30;28.10;;;20.00;;
62435;SDS011;48480;50.252;18.848;2024-03-23T04:04:14;33.90;;;21.80;;
62435;SDS011;48480;50.252;18.848;2024-03-23T04:07:01;36.80;;;24.60;;
62435;SDS011;48480;50.252;18.848;2024-03-23T04:09:46;48.70;;;29.30;;
62435;SDS011;48480;50.252;18.848;2024-03-23T04:12:30;43.60;;;26.40;;
62435;SDS011;48480;50.252;18.848;2024-03-23T04:15:14;37.10;;;22.20;;
62435;SDS011;48480;50.252;18.848;2024-03-23T04:17:58;29.50;;;18.20;;
62435;SDS011;48480;50.252;18.848;2024-03-23T04:20:42;25.80;;;16.90;;
62435;SDS011;48480;50.252;18.848;2024-03-23T04:23:26;26.50;;;16.50;;
62435;SDS011;48480;50.252;18.848;2024-03-23T04:26:10;30.50;;;20.30;;
62435;SDS011;48480;50.252;18.848;2024-03-23T04:28:54;51.50;;;29.80;;
62435;SDS011;48480;50.252;18.848;2024-03-23T04:31:38;54.70;;;32.40;;
62435;SDS011;48480;50.252;18.848;2024-03-23T04:34:23;44.60;;;28.60;;
62435;SDS011;48480;50.252;18.848;2024-03-23T04:37:08;28.80;;;19.20;;
62435;SDS011;48480;50.252;18.848;2024-03-23T04:39:52;28.70;;;18.00;;
62435;SDS011;48480;50.252;18.848;2024-03-23T04:42:36;27.80;;;16.80;;
62435;SDS011;48480;50.252;18.848;2024-03-23T04:45:20;26.10;;;16.50;;
62435;SDS011;48480;50.252;18.848;2024-03-23T04:48:04;25.40;;;15.60;;
62435;SDS011;48480;50.252;18.848;2024-03-23T04:50:49;24.30;;;15.60;;
62435;SDS011;48480;50.252;18.848;2024-03-23T04:53:38;24.80;;;15.10;;
62435;SDS011;48480;50.252;18.848;2024-03-23T04:56:22;25.00;;;15.80;;
62435;SDS011;48480;50.252;18.848;2024-03-23T04:59:06;27.60;;;15.90;;
62435;SDS011;48480;50.252;18.848;2024-03-23T05:01:50;28.10;;;16.20;;
62435;SDS011;48480;50.252;18.848;2024-03-23T05:04:35;24.30;;;16.30;;
62435;SDS011;48480;50.252;18.848;2024-03-23T05:07:20;25.80;;;16.70;;
62435;SDS011;48480;50.252;18.848;2024-03-23T05:10:05;23.80;;;16.20;;
62435;SDS011;48480;50.252;18.848;2024-03-23T05:12:49;26.40;;;16.00;;
62435;SDS011;48480;50.252;18.848;2024-03-23T05:15:33;23.50;;;15.70;;
62435;SDS011;48480;50.252;18.848;2024-03-23T05:18:17;25.70;;;16.80;;
62435;SDS011;48480;50.252;18.848;2024-03-23T05:21:01;24.70;;;16.10;;
62435;SDS011;48480;50.252;18.848;2024-03-23T05:23:46;23.80;;;16.30;;
62435;SDS011;48480;50.252;18.848;2024-03-23T05:26:32;24.40;;;14.90;;
62435;SDS011;48480;50.252;18.848;2024-03-23T05:29:17;22.70;;;15.50;;
62435;SDS011;48480;50.252;18.848;2024-03-23T05:32:01;23.10;;;14.30;;
62435;SDS011;48480;50.252;18.848;2024-03-23T05:34:45;24.00;;;16.00;;
62435;SDS011;48480;50.252;18.848;2024-03-23T05:37:30;22.30;;;15.30;;
62435;SDS011;48480;50.252;18.848;2024-03-23T05:40:17;22.50;;;14.90;;
62435;SDS011;48480;50.252;18.848;2024-03-23T05:43:01;24.90;;;15.30;;
62435;SDS011;48480;50.252;18.848;2024-03-23T05:45:45;22.40;;;15.20;;
62435;SDS011;48480;50.252;18.848;2024-03-23T05:48:29;24.20;;;15.90;;
62435;SDS011;48480;50.252;18.848;2024-03-23T05:51:14;25.00;;;15.70;;
62435;SDS011;48480;50.252;18.848;2024-03-23T05:53:58;25.10;;;13.90;;
62435;SDS011;48480;50.252;18.848;2024-03-23T05:56:43;21.20;;;14.10;;
62435;SDS011;48480;50.252;18.848;2024-03-23T05:59:27;22.10;;;14.60;;
62435;SDS011;48480;50.252;18.848;2024-03-23T06:02:11;19.10;;;13.80;;
62435;SDS011;48480;50.252;18.848;2024-03-23T06:04:55;20.00;;;14.10;;
62435;SDS011;48480;50.252;18.848;2024-03-23T06:07:40;21.90;;;15.20;;
62435;SDS011;48480;50.252;18.848;2024-03-23T06:10:24;19.20;;;13.70;;
62435;SDS011;48480;50.252;18.848;2024-03-23T06:13:08;18.60;;;14.10;;
62435;SDS011;48480;50.252;18.848;2024-03-23T06:15:52;19.50;;;13.40;;
62435;SDS011;48480;50.252;18.848;2024-03-23T06:18:37;20.10;;;13.20;;
62435;SDS011;48480;50.252;18.848;2024-03-23T06:21:21;19.60;;;12.60;;
62435;SDS011;48480;50.252;18.848;2024-03-23T06:24:07;19.00;;;13.10;;
62435;SDS011;48480;50.252;18.848;2024-03-23T06:26:51;20.70;;;14.20;;
62435;SDS011;48480;50.252;18.848;2024-03-23T06:29:35;27.40;;;18.20;;
62435;SDS011;48480;50.252;18.848;2024-03-23T06:32:20;26.60;;;18.60;;
62435;SDS011;48480;50.252;18.848;2024-03-23T06:35:04;24.20;;;17.40;;
62435;SDS011;48480;50.252;18.848;2024-03-23T06:37:52;20.70;;;16.10;;
62435;SDS011;48480;50.252;18.848;2024-03-23T06:40:36;22.00;;;16.20;;
62435;SDS011;48480;50.252;18.848;2024-03-23T06:43:21;23.90;;;16.50;;
62435;SDS011;48480;50.252;18.848;2024-03-23T06:46:05;22.50;;;16.30;;
62435;SDS011;48480;50.252;18.848;2024-03-23T06:48:49;22.50;;;16.00;;
62435;SDS011;48480;50.252;18.848;2024-03-23T06:51:34;20.10;;;15.40;;
62435;SDS011;48480;50.252;18.848;2024-03-23T06:54:18;22.50;;;14.80;;
62435;SDS011;48480;50.252;18.848;2024-03-23T06:57:03;17.30;;;12.80;;
62435;SDS011;48480;50.252;18.848;2024-03-23T06:59:48;17.90;;;11.70;;
62435;SDS011;48480;50.252;18.848;2024-03-23T07:02:33;16.50;;;11.60;;
62435;SDS011;48480;50.252;18.848;2024-03-23T07:05:17;14.10;;;11.00;;
62435;SDS011;48480;50.252;18.848;2024-03-23T07:08:02;14.60;;;10.80;;
62435;SDS011;48480;50.252;18.848;2024-03-23T07:10:46;14.00;;;10.50;;
62435;SDS011;48480;50.252;18.848;2024-03-23T07:16:19;19.90;;;11.30;;
62435;SDS011;48480;50.252;18.848;2024-03-23T07:19:10;15.10;;;10.80;;
62435;SDS011;48480;50.252;18.848;2024-03-23T07:21:56;15.50;;;11.20;;
62435;SDS011;48480;50.252;18.848;2024-03-23T07:27:37;16.60;;;10.70;;
62435;SDS011;48480;50.252;18.848;2024-03-23T07:30:26;14.80;;;10.70;;
62435;SDS011;48480;50.252;18.848;2024-03-23T07:33:13;16.00;;;11.10;;
62435;SDS011;48480;50.252;18.848;2024-03-23T07:36:05;14.80;;;10.30;;
62435;SDS011;48480;50.252;18.848;2024-03-23T07:38:52;14.90;;;9.90;;
62435;SDS011;48480;50.252;18.848;2024-03-23T07:41:46;13.50;;;10.20;;
62435;SDS011;48480;50.252;18.848;2024-03-23T07:44:30;12.80;;;9.60;;
62435;SDS011;48480;50.252;18.848;2024-03-23T07:50:06;13.60;;;9.50;;
62435;SDS011;48480;50.252;18.848;2024-03-23T07:52:51;10.40;;;8.10;;
62435;SDS011;48480;50.252;18.848;2024-03-23T07:55:51;12.90;;;9.30;;
62435;SDS011;48480;50.252;18.848;2024-03-23T07:58:38;11.40;;;9.00;;
62435;SDS011;48480;50.252;18.848;2024-03-23T08:01:23;12.50;;;8.40;;
62435;SDS011;48480;50.252;18.848;2024-03-23T08:04:08;12.40;;;9.00;;
62435;SDS011;48480;50.252;18.848;2024-03-23T08:07:00;11.30;;;8.10;;
62435;SDS011;48480;50.252;18.848;2024-03-23T08:09:55;10.10;;;7.90;;
62435;SDS011;48480;50.252;18.848;2024-03-23T08:12:39;10.30;;;7.70;;
62435;SDS011;48480;50.252;18.848;2024-03-23T08:15:26;9.50;;;7.50;;
62435;SDS011;48480;50.252;18.848;2024-03-23T08:18:16;11.40;;;7.50;;
62435;SDS011;48480;50.252;18.848;2024-03-23T08:23:53;9.10;;;6.80;;
62435;SDS011;48480;50.252;18.848;2024-03-23T08:29:33;11.70;;;7.40;;
62435;SDS011;48480;50.252;18.848;2024-03-23T08:32:18;9.30;;;7.70;;
62435;SDS011;48480;50.252;18.848;2024-03-23T08:35:02;9.90;;;7.60;;
62435;SDS011;48480;50.252;18.848;2024-03-23T08:37:47;10.10;;;7.20;;
62435;SDS011;48480;50.252;18.848;2024-03-23T08:40:31;10.20;;;7.10;;
62435;SDS011;48480;50.252;18.848;2024-03-23T08:43:15;11.20;;;7.80;;
62435;SDS011;48480;50.252;18.848;2024-03-23T08:46:03;11.70;;;7.70;;
62435;SDS011;48480;50.252;18.848;2024-03-23T08:48:52;13.60;;;8.00;;
62435;SDS011;48480;50.252;18.848;2024-03-23T08:51:36;10.70;;;7.20;;
62435;SDS011;48480;50.252;18.848;2024-03-23T08:54:20;9.20;;;7.60;;
62435;SDS011;48480;50.252;18.848;2024-03-23T08:57:12;11.60;;;7.40;;
62435;SDS011;48480;50.252;18.848;2024-03-23T08:59:56;9.80;;;6.90;;
62435;SDS011;48480;50.252;18.848;2024-03-23T09:02:41;9.50;;;7.20;;
62435;SDS011;48480;50.252;18.848;2024-03-23T09:05:38;10.20;;;7.20;;
62435;SDS011;48480;50.252;18.848;2024-03-23T09:08:32;9.30;;;6.50;;
62435;SDS011;48480;50.252;18.848;2024-03-23T09:11:16;8.50;;;7.20;;
62435;SDS011;48480;50.252;18.848;2024-03-23T09:14:04;10.10;;;7.10;;
62435;SDS011;48480;50.252;18.848;2024-03-23T09:16:51;8.90;;;7.20;;
62435;SDS011;48480;50.252;18.848;2024-03-23T09:19:36;8.50;;;6.70;;
62435;SDS011;48480;50.252;18.848;2024-03-23T09:22:21;9.80;;;6.90;;
62435;SDS011;48480;50.252;18.848;2024-03-23T09:25:05;9.80;;;7.00;;
62435;SDS011;48480;50.252;18.848;2024-03-23T09:27:50;11.70;;;6.80;;
62435;SDS011;48480;50.252;18.848;2024-03-23T09:30:34;11.20;;;6.40;;
62435;SDS011;48480;50.252;18.848;2024-03-23T09:33:19;11.00;;;6.30;;
62435;SDS011;48480;50.252;18.848;2024-03-23T09:36:03;9.80;;;6.00;;
62435;SDS011;48480;50.252;18.848;2024-03-23T09:38:53;10.80;;;6.20;;
62435;SDS011;48480;50.252;18.848;2024-03-23T09:41:37;9.00;;;6.30;;
62435;SDS011;48480;50.252;18.848;2024-03-23T09:44:25;9.60;;;6.60;;
62435;SDS011;48480;50.252;18.848;2024-03-23T09:47:13;9.90;;;5.40;;
62435;SDS011;48480;50.252;18.848;2024-03-23T09:49:58;10.20;;;6.20;;
62435;SDS011;48480;50.252;18.848;2024-03-23T09:52:53;8.20;;;5.40;;
62435;SDS011;48480;50.252;18.848;2024-03-23T09:55:46;8.80;;;5.50;;
62435;SDS011;48480;50.252;18.848;2024-03-23T09:58:32;8.00;;;5.20;;
62435;SDS011;48480;50.252;18.848;2024-03-23T10:01:27;9.50;;;5.40;;
62435;SDS011;48480;50.252;18.848;2024-03-23T10:04:35;8.30;;;5.80;;
62435;SDS011;48480;50.252;18.848;2024-03-23T10:07:30;8.50;;;5.40;;
62435;SDS011;48480;50.252;18.848;2024-03-23T10:10:15;8.10;;;5.40;;
62435;SDS011;48480;50.252;18.848;2024-03-23T10:13:11;8.20;;;5.30;;
62435;SDS011;48480;50.252;18.848;2024-03-23T10:16:09;9.10;;;5.30;;
62435;SDS011;48480;50.252;18.848;2024-03-23T10:18:53;11.60;;;5.50;;
62435;SDS011;48480;50.252;18.848;2024-03-23T10:21:42;8.00;;;5.60;;
62435;SDS011;48480;50.252;18.848;2024-03-23T10:24:36;9.70;;;4.70;;
62435;SDS011;48480;50.252;18.848;2024-03-23T10:27:21;6.70;;;5.20;;
62435;SDS011;48480;50.252;18.848;2024-03-23T10:35:53;8.70;;;5.50;;
62435;SDS011;48480;50.252;18.848;2024-03-23T10:38:39;9.30;;;5.40;;
62435;SDS011;48480;50.252;18.848;2024-03-23T10:41:26;6.90;;;5.30;;
62435;SDS011;48480;50.252;18.848;2024-03-23T10:44:13;6.40;;;4.70;;
62435;SDS011;48480;50.252;18.848;2024-03-23T10:46:58;7.00;;;4.40;;
62435;SDS011;48480;50.252;18.848;2024-03-23T10:49:49;7.50;;;4.70;;
62435;SDS011;48480;50.252;18.848;2024-03-23T10:52:33;6.70;;;4.30;;
62435;SDS011;48480;50.252;18.848;2024-03-23T10:55:18;5.50;;;4.00;;
62435;SDS011;48480;50.252;18.848;2024-03-23T10:58:13;6.50;;;4.10;;
62435;SDS011;48480;50.252;18.848;2024-03-23T11:01:01;7.50;;;4.20;;
62435;SDS011;48480;50.252;18.848;2024-03-23T11:03:49;6.10;;;4.20;;
62435;SDS011;48480;50.252;18.848;2024-03-23T11:09:38;6.90;;;4.40;;
62435;SDS011;48480;50.252;18.848;2024-03-23T11:12:25;6.10;;;3.80;;
62435;SDS011;48480;50.252;18.848;2024-03-23T11:15:11;5.00;;;3.10;;
62435;SDS011;48480;50.252;18.848;2024-03-23T11:18:06;7.60;;;3.90;;
62435;SDS011;48480;50.252;18.848;2024-03-23T11:20:55;5.50;;;3.70;;
62435;SDS011;48480;50.252;18.848;2024-03-23T11:23:39;5.60;;;3.50;;
62435;SDS011;48480;50.252;18.848;2024-03-23T11:26:24;4.80;;;3.70;;
62435;SDS011;48480;50.252;18.848;2024-03-23T11:29:15;7.90;;;4.60;;
62435;SDS011;48480;50.252;18.848;2024-03-23T11:32:01;5.40;;;3.20;;
62435;SDS011;48480;50.252;18.848;2024-03-23T11:34:53;4.10;;;3.10;;
62435;SDS011;48480;50.252;18.848;2024-03-23T11:37:37;4.40;;;2.60;;
62435;SDS011;48480;50.252;18.848;2024-03-23T11:40:24;6.20;;;3.20;;
62435;SDS011;48480;50.252;18.848;2024-03-23T11:43:19;4.00;;;2.30;;
62435;SDS011;48480;50.252;18.848;2024-03-23T11:46:09;5.10;;;2.50;;
62435;SDS011;48480;50.252;18.848;2024-03-23T11:48:55;3.60;;;2.40;;
62435;SDS011;48480;50.252;18.848;2024-03-23T11:51:39;4.30;;;2.90;;
62435;SDS011;48480;50.252;18.848;2024-03-23T11:54:31;4.70;;;2.60;;
62435;SDS011;48480;50.252;18.848;2024-03-23T11:57:22;2.90;;;2.20;;
62435;SDS011;48480;50.252;18.848;2024-03-23T12:00:26;4.20;;;2.30;;
